createdAt,value
2022-09-18T00:01:24.720Z,10.63
2022-09-18T00:03:53.600Z,12.43
2022-09-18T00:06:22.242Z,9.23
2022-09-18T00:08:53.073Z,9.10
2022-09-18T00:11:21.496Z,8.43
2022-09-18T00:13:48.542Z,10.13
2022-09-18T00:16:16.611Z,9.07
2022-09-18T00:18:43.728Z,8.40
2022-09-18T00:21:11.938Z,7.90
2022-09-18T00:23:39.482Z,8.63
2022-09-18T00:26:06.632Z,9.55
2022-09-18T00:28:33.910Z,12.68
2022-09-18T00:31:05.087Z,9.25
2022-09-18T00:33:32.099Z,10.52
2022-09-18T00:36:03.046Z,8.95
2022-09-18T00:38:32.349Z,7.78
2022-09-18T00:41:01.051Z,8.23
2022-09-18T00:43:30.603Z,10.60
2022-09-18T00:46:19.179Z,8.77
2022-09-18T00:48:54.134Z,10.27
2022-09-18T00:51:21.229Z,7.97
2022-09-18T00:53:52.570Z,8.45
2022-09-18T00:56:19.585Z,9.65
2022-09-18T00:58:46.641Z,7.43
2022-09-18T01:01:13.975Z,9.23
2022-09-18T01:03:41.117Z,6.88
2022-09-18T01:06:08.376Z,7.95
2022-09-18T01:08:56.364Z,7.22
2022-09-18T01:11:35.425Z,8.85
2022-09-18T01:14:21.045Z,7.43
2022-09-18T01:16:53.167Z,7.32
2022-09-18T01:19:54.331Z,7.20
2022-09-18T01:22:45.446Z,7.60
2022-09-18T01:25:23.065Z,7.40
2022-09-18T01:27:50.143Z,9.82
2022-09-18T01:30:17.670Z,7.82
2022-09-18T01:32:57.139Z,8.50
2022-09-18T01:35:42.767Z,8.02
2022-09-18T01:38:29.323Z,9.20
2022-09-18T01:41:26.942Z,7.50
2022-09-18T01:44:03.439Z,7.15
2022-09-18T01:46:30.537Z,9.85
2022-09-18T01:49:03.382Z,7.35
2022-09-18T01:52:08.912Z,7.95
2022-09-18T01:54:39.151Z,7.05
2022-09-18T01:57:25.550Z,6.32
2022-09-18T02:00:00.891Z,7.47
2022-09-18T02:02:55.205Z,7.63
2022-09-18T02:05:28.908Z,6.60
2022-09-18T02:08:05.793Z,8.07
2022-09-18T02:10:34.076Z,7.15
2022-09-18T02:13:03.052Z,9.27
2022-09-18T02:15:31.644Z,6.22
2022-09-18T02:18:05.766Z,7.60
2022-09-18T02:20:38.495Z,6.85
2022-09-18T02:23:06.915Z,6.93
2022-09-18T02:25:53.740Z,7.22
2022-09-18T02:28:22.072Z,6.88
2022-09-18T02:30:49.563Z,7.20
2022-09-18T02:33:36.348Z,6.63
2022-09-18T02:36:12.328Z,6.07
2022-09-18T02:38:55.497Z,7.03
2022-09-18T02:41:43.955Z,7.35
2022-09-18T02:44:51.123Z,6.63
2022-09-18T02:47:37.058Z,5.70
2022-09-18T02:50:16.012Z,6.75
2022-09-18T02:53:02.689Z,8.55
2022-09-18T02:55:34.330Z,5.85
2022-09-18T03:00:44.119Z,8.65
2022-09-18T03:03:15.878Z,8.50
2022-09-18T03:05:49.607Z,8.05
2022-09-18T03:08:18.660Z,6.70
2022-09-18T03:10:45.651Z,8.02
2022-09-18T03:13:12.573Z,7.38
2022-09-18T03:15:39.484Z,7.95
2022-09-18T03:18:06.459Z,6.65
2022-09-18T03:20:33.500Z,5.93
2022-09-18T03:23:04.221Z,7.45
2022-09-18T03:25:31.606Z,7.15
2022-09-18T03:27:58.597Z,5.82
2022-09-18T03:30:36.102Z,8.25
2022-09-18T03:33:03.419Z,7.55
2022-09-18T03:35:32.363Z,7.13
2022-09-18T03:37:59.548Z,6.53
2022-09-18T03:40:30.097Z,7.43
2022-09-18T03:42:57.221Z,7.88
2022-09-18T03:45:25.442Z,7.38
2022-09-18T03:47:52.645Z,9.20
2022-09-18T03:50:21.331Z,6.28
2022-09-18T03:52:51.287Z,7.45
2022-09-18T03:55:37.948Z,6.07
2022-09-18T03:58:24.798Z,6.53
2022-09-18T04:01:28.805Z,7.72
2022-09-18T04:04:25.328Z,6.55
2022-09-18T04:07:11.116Z,5.90
2022-09-18T04:09:46.859Z,7.18
2022-09-18T04:12:15.319Z,6.20
2022-09-18T04:14:44.680Z,7.60
2022-09-18T04:17:11.630Z,8.38
2022-09-18T04:19:38.566Z,6.65
2022-09-18T04:22:07.547Z,7.28
2022-09-18T04:24:39.632Z,6.70
2022-09-18T04:27:07.505Z,8.40
2022-09-18T04:29:34.625Z,7.90
2022-09-18T04:32:02.171Z,6.78
2022-09-18T04:34:29.195Z,6.88
2022-09-18T04:36:56.143Z,7.40
2022-09-18T04:39:26.233Z,6.70
2022-09-18T04:41:57.111Z,7.03
2022-09-18T04:44:24.445Z,7.30
2022-09-18T04:46:52.543Z,5.80
2022-09-18T04:49:19.711Z,6.53
2022-09-18T04:51:46.672Z,5.90
2022-09-18T04:54:15.230Z,5.63
2022-09-18T04:56:42.651Z,8.40
2022-09-18T04:59:09.930Z,5.93
2022-09-18T05:01:40.742Z,6.20
2022-09-18T05:04:11.464Z,7.25
2022-09-18T05:06:46.934Z,8.25
2022-09-18T05:09:14.297Z,7.07
2022-09-18T05:11:41.597Z,6.28
2022-09-18T05:14:08.752Z,7.68
2022-09-18T05:16:36.055Z,6.68
2022-09-18T05:19:32.496Z,6.82
2022-09-18T05:22:04.614Z,5.78
2022-09-18T05:24:35.328Z,5.65
2022-09-18T05:27:02.572Z,7.82
2022-09-18T05:29:29.744Z,7.53
2022-09-18T05:32:04.734Z,7.38
2022-09-18T05:34:34.782Z,7.22
2022-09-18T05:37:01.750Z,6.72
2022-09-18T05:39:28.802Z,6.10
2022-09-18T05:41:58.843Z,8.50
2022-09-18T05:44:25.772Z,6.80
2022-09-18T05:46:52.884Z,7.30
2022-09-18T05:49:20.570Z,7.47
2022-09-18T05:51:47.546Z,7.90
2022-09-18T05:54:16.410Z,6.32
2022-09-18T05:56:47.572Z,7.05
2022-09-18T05:59:15.022Z,5.78
2022-09-18T06:01:47.310Z,6.20
2022-09-18T06:04:25.911Z,7.35
2022-09-18T06:07:02.711Z,7.82
2022-09-18T06:09:30.093Z,6.80
2022-09-18T06:11:57.816Z,6.15
2022-09-18T06:14:24.985Z,5.60
2022-09-18T06:16:51.905Z,6.60
2022-09-18T06:19:18.998Z,6.18
2022-09-18T06:21:48.479Z,6.75
2022-09-18T06:24:17.858Z,5.80
2022-09-18T06:26:56.342Z,7.40
2022-09-18T06:29:23.388Z,8.25
2022-09-18T06:32:03.136Z,7.13
2022-09-18T06:34:33.526Z,7.95
2022-09-18T06:37:05.719Z,8.40
2022-09-18T06:39:44.904Z,6.05
2022-09-18T06:42:23.400Z,6.55
2022-09-18T06:45:03.465Z,5.45
2022-09-18T06:47:30.725Z,6.57
2022-09-18T06:49:57.965Z,6.75
2022-09-18T06:52:24.840Z,8.20
2022-09-18T06:54:55.663Z,6.47
2022-09-18T06:57:31.384Z,6.95
2022-09-18T06:59:58.468Z,8.63
2022-09-18T07:02:26.763Z,5.75
2022-09-18T07:05:26.893Z,6.32
2022-09-18T07:07:54.221Z,5.43
2022-09-18T07:10:22.470Z,6.60
2022-09-18T07:12:50.035Z,6.75
2022-09-18T07:15:19.590Z,5.45
2022-09-18T07:17:46.646Z,5.68
2022-09-18T07:20:16.208Z,5.13
2022-09-18T07:22:47.408Z,6.43
2022-09-18T07:25:15.530Z,6.18
2022-09-18T07:27:43.795Z,4.90
2022-09-18T07:30:12.755Z,4.50
2022-09-18T07:32:39.727Z,6.43
2022-09-18T07:35:12.715Z,5.45
2022-09-18T07:37:39.842Z,5.13
2022-09-18T07:40:20.217Z,6.30
2022-09-18T07:43:22.562Z,6.22
2022-09-18T07:45:53.685Z,7.90
2022-09-18T07:48:21.005Z,5.68
2022-09-18T07:50:50.902Z,5.88
2022-09-18T07:53:18.719Z,6.40
2022-09-18T07:55:48.880Z,6.30
2022-09-18T07:58:15.775Z,5.28
2022-09-18T08:00:54.471Z,5.28
2022-09-18T08:03:25.363Z,4.82
2022-09-18T08:05:59.500Z,6.22
2022-09-18T08:08:26.444Z,5.55
2022-09-18T08:11:03.745Z,4.80
2022-09-18T08:13:51.156Z,6.53
2022-09-18T08:16:47.542Z,7.78
2022-09-18T08:19:46.818Z,6.78
2022-09-18T08:22:32.203Z,4.80
2022-09-18T08:24:59.137Z,4.70
2022-09-18T08:27:26.366Z,6.15
2022-09-18T08:29:53.529Z,5.05
2022-09-18T08:32:20.536Z,5.20
2022-09-18T08:34:48.799Z,5.18
2022-09-18T08:37:16.209Z,5.90
2022-09-18T08:40:09.129Z,5.63
2022-09-18T08:42:54.227Z,4.50
2022-09-18T08:45:38.405Z,5.13
2022-09-18T08:48:11.824Z,5.97
2022-09-18T08:50:41.558Z,5.70
2022-09-18T08:53:23.304Z,6.55
2022-09-18T08:56:21.841Z,5.88
2022-09-18T08:59:13.045Z,7.05
2022-09-18T09:01:47.572Z,6.55
2022-09-18T09:04:23.136Z,4.20
2022-09-18T09:07:02.890Z,5.70
2022-09-18T09:09:42.506Z,5.40
2022-09-18T09:12:21.841Z,4.93
2022-09-18T09:17:40.199Z,5.03
2022-09-18T09:20:39.821Z,5.70
2022-09-18T09:23:34.397Z,5.65
2022-09-18T09:26:09.980Z,6.30
2022-09-18T09:28:59.377Z,6.20
2022-09-18T09:32:09.117Z,5.85
2022-09-18T09:34:55.809Z,6.22
2022-09-18T09:37:44.037Z,5.25
2022-09-18T09:40:36.564Z,5.00
2022-09-18T09:43:28.190Z,4.30
2022-09-18T09:45:56.320Z,5.50
2022-09-18T09:48:23.344Z,6.32
2022-09-18T09:51:02.252Z,5.10
2022-09-18T09:53:30.225Z,4.60
2022-09-18T09:56:16.221Z,5.90
2022-09-18T09:58:59.883Z,5.90
2022-09-18T10:01:59.999Z,4.47
2022-09-18T10:04:30.063Z,5.05
2022-09-18T10:07:04.790Z,4.55
2022-09-18T10:09:39.507Z,3.83
2022-09-18T10:12:24.516Z,5.25
2022-09-18T10:14:55.406Z,4.00
2022-09-18T10:17:22.384Z,4.97
2022-09-18T10:19:50.209Z,4.65
2022-09-18T10:22:19.349Z,5.95
2022-09-18T10:24:57.162Z,5.55
2022-09-18T10:27:25.946Z,4.85
2022-09-18T10:29:55.935Z,4.82
2022-09-18T10:32:41.520Z,5.15
2022-09-18T10:35:30.914Z,4.93
2022-09-18T10:37:59.327Z,5.00
2022-09-18T10:40:40.202Z,4.18
2022-09-18T10:43:18.289Z,5.60
2022-09-18T10:45:53.008Z,5.00
2022-09-18T10:48:39.790Z,6.72
2022-09-18T10:51:07.786Z,4.25
2022-09-18T10:53:44.527Z,4.78
2022-09-18T10:56:31.953Z,5.07
2022-09-18T10:59:33.914Z,4.53
2022-09-18T11:02:02.992Z,3.60
2022-09-18T11:04:32.933Z,4.55
2022-09-18T11:07:03.429Z,3.45
2022-09-18T11:09:38.972Z,3.47
2022-09-18T11:12:23.747Z,4.32
2022-09-18T11:15:14.332Z,5.15
2022-09-18T11:17:50.529Z,5.13
2022-09-18T11:20:31.985Z,4.85
2022-09-18T11:23:28.925Z,4.32
2022-09-18T11:26:20.871Z,5.50
2022-09-18T11:29:17.511Z,4.68
2022-09-18T11:31:51.833Z,3.30
2022-09-18T11:34:29.915Z,4.07
2022-09-18T11:37:00.416Z,3.58
2022-09-18T11:39:33.778Z,4.90
2022-09-18T11:42:02.010Z,4.55
2022-09-18T11:44:32.067Z,3.42
2022-09-18T11:47:22.340Z,5.43
2022-09-18T11:49:59.600Z,3.85
2022-09-18T11:52:40.005Z,3.80
2022-09-18T11:55:37.880Z,5.20
2022-09-18T11:58:16.384Z,3.83
2022-09-18T12:00:48.253Z,4.30
2022-09-18T12:03:25.818Z,3.53
2022-09-18T12:06:13.303Z,4.45
2022-09-18T12:08:42.500Z,3.70
2022-09-18T12:11:28.926Z,5.85
2022-09-18T12:14:20.657Z,3.63
2022-09-18T12:19:48.285Z,3.67
2022-09-18T12:22:26.806Z,4.15
2022-09-18T12:24:54.769Z,4.43
2022-09-18T12:28:15.730Z,3.58
2022-09-18T12:30:51.327Z,4.35
2022-09-18T12:33:34.039Z,3.75
2022-09-18T12:36:07.351Z,4.20
2022-09-18T12:38:53.824Z,4.22
2022-09-18T12:41:35.876Z,4.20
2022-09-18T12:44:36.935Z,2.90
2022-09-18T12:47:20.198Z,3.95
2022-09-18T12:50:19.436Z,6.07
2022-09-18T12:53:09.775Z,4.20
2022-09-18T12:56:01.992Z,4.28
2022-09-18T13:00:56.140Z,3.40
2022-09-18T13:03:30.658Z,4.88
2022-09-18T13:06:10.481Z,4.85
2022-09-18T13:08:44.287Z,3.33
2022-09-18T13:11:32.900Z,4.82
2022-09-18T13:14:06.628Z,3.92
2022-09-18T13:17:01.881Z,3.65
2022-09-18T13:19:33.724Z,4.10
2022-09-18T13:22:04.587Z,3.90
2022-09-18T13:24:34.045Z,4.55
2022-09-18T13:27:06.907Z,5.25
2022-09-18T13:29:51.662Z,4.70
2022-09-18T13:32:26.272Z,4.97
2022-09-18T13:34:58.077Z,3.67
2022-09-18T13:37:26.187Z,4.63
2022-09-18T13:40:25.889Z,4.90
2022-09-18T13:42:52.844Z,4.60
2022-09-18T13:45:26.470Z,4.90
2022-09-18T13:48:19.632Z,6.85
2022-09-18T13:50:54.148Z,5.07
2022-09-18T13:53:40.843Z,5.03
2022-09-18T13:56:12.509Z,4.85
2022-09-18T13:58:56.012Z,4.00
2022-09-18T14:01:41.307Z,4.13
2022-09-18T14:04:40.764Z,3.28
2022-09-18T14:07:17.054Z,4.20
2022-09-18T14:10:05.683Z,5.45
2022-09-18T14:12:33.927Z,3.25
2022-09-18T14:15:02.519Z,2.47
2022-09-18T14:17:30.689Z,4.55
2022-09-18T14:20:01.588Z,3.72
2022-09-18T14:22:30.045Z,4.45
2022-09-18T14:24:59.934Z,3.88
2022-09-18T14:27:49.135Z,4.32
2022-09-18T14:30:17.369Z,5.07
2022-09-18T14:33:03.503Z,3.80
2022-09-18T14:35:44.209Z,4.85
2022-09-18T14:38:24.821Z,4.85
2022-09-18T14:41:08.877Z,4.47
2022-09-18T14:43:39.706Z,4.82
2022-09-18T14:46:07.277Z,4.50
2022-09-18T14:48:38.631Z,5.03
2022-09-18T14:51:26.989Z,5.32
2022-09-18T14:53:57.700Z,4.13
2022-09-18T14:56:32.973Z,3.80
2022-09-18T14:59:03.075Z,4.97
2022-09-18T15:01:32.575Z,4.95
2022-09-18T15:04:00.931Z,6.05
2022-09-18T15:06:51.952Z,6.07
2022-09-18T15:09:36.911Z,3.85
2022-09-18T15:12:04.112Z,6.18
2022-09-18T15:14:42.672Z,4.38
2022-09-18T15:17:19.894Z,5.03
2022-09-18T15:19:59.949Z,4.43
2022-09-18T15:22:27.733Z,6.35
2022-09-18T15:24:55.278Z,5.35
2022-09-18T15:27:22.208Z,4.68
2022-09-18T15:29:54.057Z,5.45
2022-09-18T15:32:28.952Z,6.25
2022-09-18T15:34:55.938Z,4.82
2022-09-18T15:37:24.438Z,4.47
2022-09-18T15:40:05.207Z,4.75
2022-09-18T15:42:41.950Z,4.63
2022-09-18T15:45:11.581Z,4.65
2022-09-18T15:47:40.676Z,4.32
2022-09-18T15:50:13.552Z,3.97
2022-09-18T15:52:58.184Z,4.80
2022-09-18T15:55:53.396Z,4.35
2022-09-18T15:58:26.478Z,4.65
2022-09-18T16:00:58.222Z,5.03
2022-09-18T16:03:28.064Z,5.43
2022-09-18T16:05:56.844Z,7.45
2022-09-18T16:08:26.787Z,6.20
2022-09-18T16:10:53.996Z,4.60
2022-09-18T16:13:20.964Z,7.13
2022-09-18T16:15:48.075Z,5.10
2022-09-18T16:18:19.811Z,4.78
2022-09-18T16:23:31.054Z,4.15
2022-09-18T16:26:09.205Z,4.40
2022-09-18T16:28:49.812Z,5.03
2022-09-18T16:31:21.427Z,4.25
2022-09-18T16:36:27.560Z,4.50
2022-09-18T16:38:55.611Z,5.10
2022-09-18T16:41:22.561Z,6.43
2022-09-18T16:43:51.332Z,5.18
2022-09-18T16:46:20.695Z,4.68
2022-09-18T16:48:47.689Z,4.70
2022-09-18T16:51:14.621Z,5.10
2022-09-18T16:53:41.632Z,4.70
2022-09-18T16:56:10.339Z,4.65
2022-09-18T16:58:38.955Z,5.13
2022-09-18T17:01:05.853Z,4.63
2022-09-18T17:03:32.936Z,4.95
2022-09-18T17:06:02.072Z,5.07
2022-09-18T17:08:30.399Z,5.35
2022-09-18T17:10:57.755Z,6.93
2022-09-18T17:13:24.777Z,5.93
2022-09-18T17:15:51.729Z,5.45
2022-09-18T17:18:18.756Z,6.32
2022-09-18T17:20:46.074Z,6.07
2022-09-18T17:23:13.358Z,4.53
2022-09-18T17:25:40.536Z,5.85
2022-09-18T17:28:07.801Z,4.22
2022-09-18T17:30:34.667Z,5.03
2022-09-18T17:33:02.809Z,4.75
2022-09-18T17:35:29.769Z,5.93
2022-09-18T17:37:56.671Z,5.22
2022-09-18T17:40:23.578Z,7.13
2022-09-18T17:42:50.666Z,6.95
2022-09-18T17:45:17.879Z,6.40
2022-09-18T17:47:44.913Z,5.68
2022-09-18T17:50:12.327Z,4.40
2022-09-18T17:52:39.308Z,5.07
2022-09-18T17:55:06.966Z,4.65
2022-09-18T17:57:35.415Z,5.65
2022-09-18T18:00:02.442Z,5.25
2022-09-18T18:02:39.690Z,5.68
2022-09-18T18:05:06.822Z,4.85
2022-09-18T18:07:33.797Z,5.03
2022-09-18T18:10:00.650Z,4.93
2022-09-18T18:12:27.572Z,4.55
2022-09-18T18:14:54.412Z,5.75
2022-09-18T18:17:21.519Z,6.07
2022-09-18T18:19:49.686Z,5.40
2022-09-18T18:22:17.197Z,4.50
2022-09-18T18:24:44.572Z,4.72
2022-09-18T18:27:11.517Z,4.75
2022-09-18T18:29:41.007Z,5.40
2022-09-18T18:32:07.886Z,5.88
2022-09-18T18:34:34.967Z,5.70
2022-09-18T18:37:02.998Z,7.93
2022-09-18T18:39:30.067Z,5.47
2022-09-18T18:41:56.996Z,6.90
2022-09-18T18:44:23.936Z,7.32
2022-09-18T18:46:51.137Z,6.32
2022-09-18T18:49:18.219Z,8.15
2022-09-18T18:51:47.954Z,5.50
2022-09-18T18:54:16.562Z,6.15
2022-09-18T18:56:43.685Z,6.60
2022-09-18T18:59:12.691Z,6.40
2022-09-18T19:01:40.058Z,5.65
2022-09-18T19:04:11.045Z,7.47
2022-09-18T19:06:39.897Z,6.38
2022-09-18T19:09:18.191Z,6.15
2022-09-18T19:11:50.490Z,6.20
2022-09-18T19:14:25.315Z,6.03
2022-09-18T19:16:53.028Z,6.20
2022-09-18T19:19:21.286Z,5.50
2022-09-18T19:21:48.240Z,5.55
2022-09-18T19:24:15.777Z,5.90
2022-09-18T19:26:43.109Z,5.50
2022-09-18T19:29:12.243Z,6.80
2022-09-18T19:31:40.432Z,5.85
2022-09-18T19:34:07.529Z,6.20
2022-09-18T19:36:34.600Z,5.00
2022-09-18T19:39:04.160Z,5.00
2022-09-18T19:41:39.092Z,6.00
2022-09-18T19:44:10.446Z,6.25
2022-09-18T19:46:37.441Z,5.80
2022-09-18T19:49:04.622Z,6.22
2022-09-18T19:51:31.522Z,6.05
2022-09-18T19:53:58.441Z,7.00
2022-09-18T19:56:42.031Z,7.50
2022-09-18T19:59:10.532Z,6.35
2022-09-18T20:01:37.508Z,7.75
2022-09-18T20:04:04.544Z,8.43
2022-09-18T20:06:32.910Z,7.30
2022-09-18T20:09:00.333Z,6.72
2022-09-18T20:11:27.246Z,7.47
2022-09-18T20:13:54.349Z,7.72
2022-09-18T20:16:22.582Z,7.00
2022-09-18T20:18:50.058Z,7.00
2022-09-18T20:21:17.971Z,7.22
2022-09-18T20:23:45.190Z,7.20
2022-09-18T20:26:13.836Z,6.57
2022-09-18T20:28:40.896Z,7.35
2022-09-18T20:31:09.851Z,7.20
2022-09-18T20:33:36.904Z,7.20
2022-09-18T20:36:04.887Z,5.95
2022-09-18T20:38:32.760Z,7.05
2022-09-18T20:41:06.762Z,5.88
2022-09-18T20:43:34.090Z,6.47
2022-09-18T20:46:02.417Z,6.20
2022-09-18T20:48:37.989Z,7.03
2022-09-18T20:51:08.030Z,7.15
2022-09-18T20:53:39.197Z,6.47
2022-09-18T20:56:10.867Z,7.60
2022-09-18T20:58:39.373Z,7.10
2022-09-18T21:01:11.482Z,6.40
2022-09-18T21:03:39.895Z,7.10
2022-09-18T21:06:22.355Z,7.47
2022-09-18T21:08:53.533Z,6.53
2022-09-18T21:11:25.680Z,6.95
2022-09-18T21:13:57.002Z,7.05
2022-09-18T21:16:25.951Z,7.78
2022-09-18T21:18:55.690Z,8.55
2022-09-18T21:21:22.783Z,10.23
2022-09-18T21:24:01.302Z,8.00
2022-09-18T21:26:33.203Z,6.95
2022-09-18T21:31:32.797Z,7.20
2022-09-18T21:34:00.366Z,7.82
2022-09-18T21:36:27.444Z,7.10
2022-09-18T21:38:54.922Z,8.30
2022-09-18T21:41:22.352Z,7.32
2022-09-18T21:43:50.670Z,8.60
2022-09-18T21:46:19.487Z,9.52
2022-09-18T21:48:47.640Z,9.77
2022-09-18T21:51:16.048Z,7.90
2022-09-18T21:53:43.537Z,7.72
2022-09-18T21:56:12.363Z,7.60
2022-09-18T21:58:40.830Z,7.82
2022-09-18T22:01:28.649Z,7.60
2022-09-18T22:03:56.402Z,8.05
2022-09-18T22:06:24.078Z,9.90
2022-09-18T22:08:52.514Z,8.23
2022-09-18T22:11:20.356Z,9.90
2022-09-18T22:13:47.523Z,9.15
2022-09-18T22:16:14.453Z,7.97
2022-09-18T22:18:41.553Z,6.95
2022-09-18T22:21:22.538Z,9.52
2022-09-18T22:24:06.438Z,9.07
2022-09-18T22:26:38.046Z,20.08
2022-09-18T22:29:06.792Z,8.65
2022-09-18T22:31:37.327Z,8.43
2022-09-18T22:34:04.708Z,7.70
2022-09-18T22:36:31.635Z,6.57
2022-09-18T22:38:58.604Z,8.38
2022-09-18T22:41:25.568Z,9.70
2022-09-18T22:43:56.272Z,8.30
2022-09-18T22:46:24.566Z,9.18
2022-09-18T22:48:52.145Z,7.88
2022-09-18T22:51:20.630Z,9.10
2022-09-18T22:54:04.729Z,7.50
2022-09-18T22:56:31.762Z,7.30
2022-09-18T22:59:02.131Z,7.70
2022-09-18T23:01:42.590Z,7.50
2022-09-18T23:04:10.016Z,8.63
2022-09-18T23:06:36.921Z,8.07
2022-09-18T23:09:04.708Z,7.50
2022-09-18T23:11:32.666Z,6.97
2022-09-18T23:14:01.302Z,9.05
2022-09-18T23:16:29.856Z,6.93
2022-09-18T23:19:02.180Z,7.53
2022-09-18T23:21:31.636Z,8.18
2022-09-18T23:24:05.896Z,7.60
2022-09-18T23:26:37.948Z,7.07
2022-09-18T23:29:06.681Z,7.68
2022-09-18T23:31:35.296Z,8.13
2022-09-18T23:34:04.004Z,8.55
2022-09-18T23:36:38.939Z,8.45
2022-09-18T23:39:22.387Z,6.80
2022-09-18T23:41:49.688Z,8.23
2022-09-18T23:44:17.345Z,8.57
2022-09-18T23:46:44.550Z,7.85
2022-09-18T23:49:13.086Z,8.35
2022-09-18T23:51:42.053Z,7.97
2022-09-18T23:54:16.728Z,8.27
2022-09-18T23:56:43.791Z,8.23
2022-09-18T23:59:11.202Z,7.05
